sensor_id;sensor_type;location;lat;lon;timestamp;temperature;humidity
41344;DHT22;27089;50.022;7.604;2023-07-13T00:01:46;13.40;99.90
41344;DHT22;27089;50.022;7.604;2023-07-13T00:04:17;13.20;99.90
41344;DHT22;27089;50.022;7.604;2023-07-13T00:06:44;13.10;99.90
41344;DHT22;27089;50.022;7.604;2023-07-13T00:09:11;13.10;99.90
41344;DHT22;27089;50.022;7.604;2023-07-13T00:11:39;13.10;99.90
41344;DHT22;27089;50.022;7.604;2023-07-13T00:14:06;13.10;99.90
41344;DHT22;27089;50.022;7.604;2023-07-13T00:16:34;13.10;99.90
41344;DHT22;27089;50.022;7.604;2023-07-13T00:19:01;13.00;99.90
41344;DHT22;27089;50.022;7.604;2023-07-13T00:21:30;12.90;99.90
41344;DHT22;27089;50.022;7.604;2023-07-13T00:23:57;12.90;99.90
41344;DHT22;27089;50.022;7.604;2023-07-13T00:26:25;13.00;99.90
41344;DHT22;27089;50.022;7.604;2023-07-13T00:28:52;13.00;99.90
41344;DHT22;27089;50.022;7.604;2023-07-13T00:31:19;13.00;99.90
41344;DHT22;27089;50.022;7.604;2023-07-13T00:33:46;12.90;99.90
41344;DHT22;27089;50.022;7.604;2023-07-13T00:36:13;12.90;99.90
41344;DHT22;27089;50.022;7.604;2023-07-13T00:38:42;12.80;99.90
41344;DHT22;27089;50.022;7.604;2023-07-13T00:41:10;12.70;99.90
41344;DHT22;27089;50.022;7.604;2023-07-13T00:43:37;12.60;99.90
41344;DHT22;27089;50.022;7.604;2023-07-13T00:46:25;12.50;99.90
41344;DHT22;27089;50.022;7.604;2023-07-13T00:48:54;12.40;99.90
41344;DHT22;27089;50.022;7.604;2023-07-13T00:51:29;12.40;99.90
41344;DHT22;27089;50.022;7.604;2023-07-13T00:54:00;12.40;99.90
41344;DHT22;27089;50.022;7.604;2023-07-13T00:56:29;12.30;99.90
41344;DHT22;27089;50.022;7.604;2023-07-13T00:58:57;12.20;99.90
41344;DHT22;27089;50.022;7.604;2023-07-13T01:01:26;12.20;99.90
41344;DHT22;27089;50.022;7.604;2023-07-13T01:03:53;12.10;99.90
41344;DHT22;27089;50.022;7.604;2023-07-13T01:06:20;12.10;99.90
41344;DHT22;27089;50.022;7.604;2023-07-13T01:08:47;12.00;99.90
41344;DHT22;27089;50.022;7.604;2023-07-13T01:11:18;11.90;99.90
41344;DHT22;27089;50.022;7.604;2023-07-13T01:13:46;11.80;99.90
41344;DHT22;27089;50.022;7.604;2023-07-13T01:16:25;11.80;99.90
41344;DHT22;27089;50.022;7.604;2023-07-13T01:18:53;11.70;99.90
41344;DHT22;27089;50.022;7.604;2023-07-13T01:21:25;11.70;99.90
41344;DHT22;27089;50.022;7.604;2023-07-13T01:23:52;11.70;99.90
41344;DHT22;27089;50.022;7.604;2023-07-13T01:26:20;11.70;99.90
41344;DHT22;27089;50.022;7.604;2023-07-13T01:28:47;11.70;99.90
41344;DHT22;27089;50.022;7.604;2023-07-13T01:31:13;11.70;99.90
41344;DHT22;27089;50.022;7.604;2023-07-13T01:33:41;11.70;99.90
41344;DHT22;27089;50.022;7.604;2023-07-13T01:36:09;11.80;99.90
41344;DHT22;27089;50.022;7.604;2023-07-13T01:38:37;11.80;99.90
41344;DHT22;27089;50.022;7.604;2023-07-13T01:41:04;11.90;99.90
41344;DHT22;27089;50.022;7.604;2023-07-13T01:43:31;11.80;99.90
41344;DHT22;27089;50.022;7.604;2023-07-13T01:45:59;11.70;99.90
41344;DHT22;27089;50.022;7.604;2023-07-13T01:48:25;11.50;99.90
41344;DHT22;27089;50.022;7.604;2023-07-13T01:50:52;11.40;99.90
41344;DHT22;27089;50.022;7.604;2023-07-13T01:53:19;11.40;99.90
41344;DHT22;27089;50.022;7.604;2023-07-13T01:55:48;11.30;99.90
41344;DHT22;27089;50.022;7.604;2023-07-13T01:58:14;11.30;99.90
41344;DHT22;27089;50.022;7.604;2023-07-13T02:00:41;11.20;99.90
41344;DHT22;27089;50.022;7.604;2023-07-13T02:03:08;11.20;99.90
41344;DHT22;27089;50.022;7.604;2023-07-13T02:05:36;11.10;99.90
41344;DHT22;27089;50.022;7.604;2023-07-13T02:08:03;11.10;99.90
41344;DHT22;27089;50.022;7.604;2023-07-13T02:10:30;11.10;99.90
41344;DHT22;27089;50.022;7.604;2023-07-13T02:12:59;11.10;99.90
41344;DHT22;27089;50.022;7.604;2023-07-13T02:15:25;11.00;99.90
41344;DHT22;27089;50.022;7.604;2023-07-13T02:17:52;10.90;99.90
41344;DHT22;27089;50.022;7.604;2023-07-13T02:20:19;10.80;99.90
41344;DHT22;27089;50.022;7.604;2023-07-13T02:22:46;10.80;99.90
41344;DHT22;27089;50.022;7.604;2023-07-13T02:25:13;10.80;99.90
41344;DHT22;27089;50.022;7.604;2023-07-13T02:27:41;10.80;99.90
41344;DHT22;27089;50.022;7.604;2023-07-13T02:30:11;10.80;99.90
41344;DHT22;27089;50.022;7.604;2023-07-13T02:32:38;10.80;99.90
41344;DHT22;27089;50.022;7.604;2023-07-13T02:35:05;10.80;99.90
41344;DHT22;27089;50.022;7.604;2023-07-13T02:37:32;10.70;99.90
41344;DHT22;27089;50.022;7.604;2023-07-13T02:39:59;10.70;99.90
41344;DHT22;27089;50.022;7.604;2023-07-13T02:42:26;10.60;99.90
41344;DHT22;27089;50.022;7.604;2023-07-13T02:44:53;10.50;99.90
41344;DHT22;27089;50.022;7.604;2023-07-13T02:47:21;10.50;99.90
41344;DHT22;27089;50.022;7.604;2023-07-13T02:49:49;10.50;99.90
41344;DHT22;27089;50.022;7.604;2023-07-13T02:52:16;10.50;99.90
41344;DHT22;27089;50.022;7.604;2023-07-13T02:54:42;10.50;99.90
41344;DHT22;27089;50.022;7.604;2023-07-13T02:57:09;10.60;99.90
41344;DHT22;27089;50.022;7.604;2023-07-13T02:59:36;10.70;99.90
41344;DHT22;27089;50.022;7.604;2023-07-13T03:02:04;10.80;99.90
41344;DHT22;27089;50.022;7.604;2023-07-13T03:04:32;10.80;99.90
41344;DHT22;27089;50.022;7.604;2023-07-13T03:06:59;10.80;99.90
41344;DHT22;27089;50.022;7.604;2023-07-13T03:09:26;10.80;99.90
41344;DHT22;27089;50.022;7.604;2023-07-13T03:11:53;10.70;99.90
41344;DHT22;27089;50.022;7.604;2023-07-13T03:14:22;10.70;99.90
41344;DHT22;27089;50.022;7.604;2023-07-13T03:16:49;10.70;99.90
41344;DHT22;27089;50.022;7.604;2023-07-13T03:19:17;10.70;99.90
41344;DHT22;27089;50.022;7.604;2023-07-13T03:21:46;10.70;99.90
41344;DHT22;27089;50.022;7.604;2023-07-13T03:24:13;10.70;99.90
41344;DHT22;27089;50.022;7.604;2023-07-13T03:26:40;10.70;99.90
41344;DHT22;27089;50.022;7.604;2023-07-13T03:29:07;10.70;99.90
41344;DHT22;27089;50.022;7.604;2023-07-13T03:31:37;10.90;99.90
41344;DHT22;27089;50.022;7.604;2023-07-13T03:34:04;11.00;99.90
41344;DHT22;27089;50.022;7.604;2023-07-13T03:36:32;11.20;99.90
41344;DHT22;27089;50.022;7.604;2023-07-13T03:39:01;11.30;99.90
41344;DHT22;27089;50.022;7.604;2023-07-13T03:41:29;11.50;99.90
41344;DHT22;27089;50.022;7.604;2023-07-13T03:43:57;11.70;99.90
41344;DHT22;27089;50.022;7.604;2023-07-13T03:46:24;11.70;99.90
41344;DHT22;27089;50.022;7.604;2023-07-13T03:48:52;11.70;99.90
41344;DHT22;27089;50.022;7.604;2023-07-13T03:51:19;11.70;99.90
41344;DHT22;27089;50.022;7.604;2023-07-13T03:53:47;11.70;99.90
41344;DHT22;27089;50.022;7.604;2023-07-13T03:56:17;11.70;99.90
41344;DHT22;27089;50.022;7.604;2023-07-13T03:58:45;11.60;99.90
41344;DHT22;27089;50.022;7.604;2023-07-13T04:01:14;11.70;99.90
41344;DHT22;27089;50.022;7.604;2023-07-13T04:03:41;11.70;99.90
41344;DHT22;27089;50.022;7.604;2023-07-13T04:06:14;11.70;99.90
41344;DHT22;27089;50.022;7.604;2023-07-13T04:08:48;11.80;99.90
41344;DHT22;27089;50.022;7.604;2023-07-13T04:11:18;11.80;99.90
41344;DHT22;27089;50.022;7.604;2023-07-13T04:13:45;11.90;99.90
41344;DHT22;27089;50.022;7.604;2023-07-13T04:16:12;12.00;99.90
41344;DHT22;27089;50.022;7.604;2023-07-13T04:18:39;12.00;99.90
41344;DHT22;27089;50.022;7.604;2023-07-13T04:21:07;12.20;99.90
41344;DHT22;27089;50.022;7.604;2023-07-13T04:23:35;12.30;99.90
41344;DHT22;27089;50.022;7.604;2023-07-13T04:26:02;12.40;99.90
41344;DHT22;27089;50.022;7.604;2023-07-13T04:28:30;12.60;99.90
41344;DHT22;27089;50.022;7.604;2023-07-13T04:30:57;12.70;99.90
41344;DHT22;27089;50.022;7.604;2023-07-13T04:33:24;13.00;99.90
41344;DHT22;27089;50.022;7.604;2023-07-13T04:35:52;13.50;99.90
41344;DHT22;27089;50.022;7.604;2023-07-13T04:38:22;13.90;99.90
41344;DHT22;27089;50.022;7.604;2023-07-13T04:40:50;14.10;99.90
41344;DHT22;27089;50.022;7.604;2023-07-13T04:43:17;14.10;99.90
41344;DHT22;27089;50.022;7.604;2023-07-13T04:45:46;14.10;99.90
41344;DHT22;27089;50.022;7.604;2023-07-13T04:48:13;14.00;99.90
41344;DHT22;27089;50.022;7.604;2023-07-13T04:50:40;14.00;99.90
41344;DHT22;27089;50.022;7.604;2023-07-13T04:53:07;14.10;99.90
41344;DHT22;27089;50.022;7.604;2023-07-13T04:55:34;14.10;99.90
41344;DHT22;27089;50.022;7.604;2023-07-13T04:58:01;14.30;99.90
41344;DHT22;27089;50.022;7.604;2023-07-13T05:00:29;14.50;99.90
41344;DHT22;27089;50.022;7.604;2023-07-13T05:02:58;14.60;99.90
41344;DHT22;27089;50.022;7.604;2023-07-13T05:05:26;14.80;99.90
41344;DHT22;27089;50.022;7.604;2023-07-13T05:07:54;15.00;99.90
41344;DHT22;27089;50.022;7.604;2023-07-13T05:10:21;15.10;99.90
41344;DHT22;27089;50.022;7.604;2023-07-13T05:12:48;15.20;99.90
41344;DHT22;27089;50.022;7.604;2023-07-13T05:15:15;15.30;99.90
41344;DHT22;27089;50.022;7.604;2023-07-13T05:17:46;15.40;99.90
41344;DHT22;27089;50.022;7.604;2023-07-13T05:20:15;15.60;99.90
41344;DHT22;27089;50.022;7.604;2023-07-13T05:22:43;15.60;99.90
41344;DHT22;27089;50.022;7.604;2023-07-13T05:25:12;15.60;99.90
41344;DHT22;27089;50.022;7.604;2023-07-13T05:27:39;15.80;99.90
41344;DHT22;27089;50.022;7.604;2023-07-13T05:30:07;15.80;99.90
41344;DHT22;27089;50.022;7.604;2023-07-13T05:32:36;16.00;99.90
41344;DHT22;27089;50.022;7.604;2023-07-13T05:35:04;16.10;99.90
41344;DHT22;27089;50.022;7.604;2023-07-13T05:37:33;16.20;99.90
41344;DHT22;27089;50.022;7.604;2023-07-13T05:40:00;16.50;99.90
41344;DHT22;27089;50.022;7.604;2023-07-13T05:42:27;16.70;99.90
41344;DHT22;27089;50.022;7.604;2023-07-13T05:44:54;16.90;99.90
41344;DHT22;27089;50.022;7.604;2023-07-13T05:47:21;17.10;99.90
41344;DHT22;27089;50.022;7.604;2023-07-13T05:49:48;17.30;99.90
41344;DHT22;27089;50.022;7.604;2023-07-13T05:52:15;17.50;99.90
41344;DHT22;27089;50.022;7.604;2023-07-13T05:54:43;17.70;99.90
41344;DHT22;27089;50.022;7.604;2023-07-13T05:57:10;17.90;99.90
41344;DHT22;27089;50.022;7.604;2023-07-13T05:59:37;18.30;99.90
41344;DHT22;27089;50.022;7.604;2023-07-13T06:02:04;20.20;99.90
41344;DHT22;27089;50.022;7.604;2023-07-13T06:04:31;22.40;99.90
41344;DHT22;27089;50.022;7.604;2023-07-13T06:06:58;24.40;99.90
41344;DHT22;27089;50.022;7.604;2023-07-13T06:09:25;26.10;99.90
41344;DHT22;27089;50.022;7.604;2023-07-13T06:11:54;27.60;98.90
41344;DHT22;27089;50.022;7.604;2023-07-13T06:14:21;28.80;93.50
41344;DHT22;27089;50.022;7.604;2023-07-13T06:16:48;29.80;89.80
41344;DHT22;27089;50.022;7.604;2023-07-13T06:19:15;30.70;82.20
41344;DHT22;27089;50.022;7.604;2023-07-13T06:21:42;31.30;76.00
41344;DHT22;27089;50.022;7.604;2023-07-13T06:24:08;31.90;71.30
41344;DHT22;27089;50.022;7.604;2023-07-13T06:26:35;32.60;67.50
41344;DHT22;27089;50.022;7.604;2023-07-13T06:29:04;33.10;64.80
41344;DHT22;27089;50.022;7.604;2023-07-13T06:31:31;33.60;61.40
41344;DHT22;27089;50.022;7.604;2023-07-13T06:33:58;33.90;58.70
41344;DHT22;27089;50.022;7.604;2023-07-13T06:36:25;32.90;58.30
41344;DHT22;27089;50.022;7.604;2023-07-13T06:38:52;31.40;59.70
41344;DHT22;27089;50.022;7.604;2023-07-13T06:41:19;29.90;63.70
41344;DHT22;27089;50.022;7.604;2023-07-13T06:43:47;29.20;65.80
41344;DHT22;27089;50.022;7.604;2023-07-13T06:46:16;29.60;66.90
41344;DHT22;27089;50.022;7.604;2023-07-13T06:48:42;31.00;63.80
41344;DHT22;27089;50.022;7.604;2023-07-13T06:51:09;32.20;61.20
41344;DHT22;27089;50.022;7.604;2023-07-13T06:53:36;33.40;58.30
41344;DHT22;27089;50.022;7.604;2023-07-13T06:56:04;33.70;56.80
41344;DHT22;27089;50.022;7.604;2023-07-13T06:58:31;34.00;56.10
41344;DHT22;27089;50.022;7.604;2023-07-13T07:00:58;34.70;54.20
41344;DHT22;27089;50.022;7.604;2023-07-13T07:03:26;35.00;53.20
41344;DHT22;27089;50.022;7.604;2023-07-13T07:05:53;35.70;51.40
41344;DHT22;27089;50.022;7.604;2023-07-13T07:08:20;36.20;49.70
41344;DHT22;27089;50.022;7.604;2023-07-13T07:10:47;36.50;48.10
41344;DHT22;27089;50.022;7.604;2023-07-13T07:13:19;36.70;47.60
41344;DHT22;27089;50.022;7.604;2023-07-13T07:15:46;36.70;46.80
41344;DHT22;27089;50.022;7.604;2023-07-13T07:18:13;36.40;46.90
41344;DHT22;27089;50.022;7.604;2023-07-13T07:20:41;36.80;46.70
41344;DHT22;27089;50.022;7.604;2023-07-13T07:23:08;37.20;45.80
41344;DHT22;27089;50.022;7.604;2023-07-13T07:25:35;37.70;44.80
41344;DHT22;27089;50.022;7.604;2023-07-13T07:28:07;38.10;44.20
41344;DHT22;27089;50.022;7.604;2023-07-13T07:30:34;37.70;43.80
41344;DHT22;27089;50.022;7.604;2023-07-13T07:33:02;37.60;43.90
41344;DHT22;27089;50.022;7.604;2023-07-13T07:35:29;37.10;44.30
41344;DHT22;27089;50.022;7.604;2023-07-13T07:37:57;37.80;44.20
41344;DHT22;27089;50.022;7.604;2023-07-13T07:40:24;37.90;44.30
41344;DHT22;27089;50.022;7.604;2023-07-13T07:42:51;38.20;43.30
41344;DHT22;27089;50.022;7.604;2023-07-13T07:45:19;38.10;43.60
41344;DHT22;27089;50.022;7.604;2023-07-13T07:47:46;38.60;42.90
41344;DHT22;27089;50.022;7.604;2023-07-13T07:50:13;39.40;42.10
41344;DHT22;27089;50.022;7.604;2023-07-13T07:52:40;39.70;41.30
41344;DHT22;27089;50.022;7.604;2023-07-13T07:55:09;40.30;41.00
41344;DHT22;27089;50.022;7.604;2023-07-13T07:57:36;40.40;40.10
41344;DHT22;27089;50.022;7.604;2023-07-13T08:00:04;39.70;40.10
41344;DHT22;27089;50.022;7.604;2023-07-13T08:02:31;39.40;40.90
41344;DHT22;27089;50.022;7.604;2023-07-13T08:04:58;38.60;40.80
41344;DHT22;27089;50.022;7.604;2023-07-13T08:07:25;37.90;41.50
41344;DHT22;27089;50.022;7.604;2023-07-13T08:09:52;37.00;42.30
41344;DHT22;27089;50.022;7.604;2023-07-13T08:12:20;37.00;43.10
41344;DHT22;27089;50.022;7.604;2023-07-13T08:14:50;37.70;42.70
41344;DHT22;27089;50.022;7.604;2023-07-13T08:17:19;38.40;41.60
41344;DHT22;27089;50.022;7.604;2023-07-13T08:19:46;39.00;41.30
41344;DHT22;27089;50.022;7.604;2023-07-13T08:22:13;39.00;40.30
41344;DHT22;27089;50.022;7.604;2023-07-13T08:24:40;38.90;40.50
41344;DHT22;27089;50.022;7.604;2023-07-13T08:27:08;38.60;40.70
41344;DHT22;27089;50.022;7.604;2023-07-13T08:29:38;38.80;40.20
41344;DHT22;27089;50.022;7.604;2023-07-13T08:32:06;38.10;40.60
41344;DHT22;27089;50.022;7.604;2023-07-13T08:34:34;38.00;41.40
41344;DHT22;27089;50.022;7.604;2023-07-13T08:37:01;37.80;41.20
41344;DHT22;27089;50.022;7.604;2023-07-13T08:39:30;37.40;41.50
41344;DHT22;27089;50.022;7.604;2023-07-13T08:42:01;36.60;42.40
41344;DHT22;27089;50.022;7.604;2023-07-13T08:44:39;36.10;42.50
41344;DHT22;27089;50.022;7.604;2023-07-13T08:47:08;35.20;43.80
41344;DHT22;27089;50.022;7.604;2023-07-13T08:49:36;35.40;44.80
41344;DHT22;27089;50.022;7.604;2023-07-13T08:52:10;35.70;43.60
41344;DHT22;27089;50.022;7.604;2023-07-13T08:54:42;36.30;43.30
41344;DHT22;27089;50.022;7.604;2023-07-13T08:57:13;36.70;43.00
41344;DHT22;27089;50.022;7.604;2023-07-13T08:59:43;37.00;42.50
41344;DHT22;27089;50.022;7.604;2023-07-13T09:02:20;37.30;42.20
41344;DHT22;27089;50.022;7.604;2023-07-13T09:04:52;37.40;42.00
41344;DHT22;27089;50.022;7.604;2023-07-13T09:07:28;37.10;42.30
41344;DHT22;27089;50.022;7.604;2023-07-13T09:10:05;36.40;42.60
41344;DHT22;27089;50.022;7.604;2023-07-13T09:12:40;35.70;43.30
41344;DHT22;27089;50.022;7.604;2023-07-13T09:15:23;35.50;43.80
41344;DHT22;27089;50.022;7.604;2023-07-13T09:17:53;35.60;44.00
41344;DHT22;27089;50.022;7.604;2023-07-13T09:20:26;35.60;44.00
41344;DHT22;27089;50.022;7.604;2023-07-13T09:22:56;35.40;43.80
41344;DHT22;27089;50.022;7.604;2023-07-13T09:25:29;35.20;44.60
41344;DHT22;27089;50.022;7.604;2023-07-13T09:28:00;35.20;44.30
41344;DHT22;27089;50.022;7.604;2023-07-13T09:30:34;35.10;44.70
41344;DHT22;27089;50.022;7.604;2023-07-13T09:33:04;35.20;45.50
41344;DHT22;27089;50.022;7.604;2023-07-13T09:35:31;35.10;43.50
41344;DHT22;27089;50.022;7.604;2023-07-13T09:38:03;34.40;44.60
41344;DHT22;27089;50.022;7.604;2023-07-13T09:40:38;33.30;45.40
41344;DHT22;27089;50.022;7.604;2023-07-13T09:43:08;32.70;46.20
41344;DHT22;27089;50.022;7.604;2023-07-13T09:45:39;33.20;46.10
41344;DHT22;27089;50.022;7.604;2023-07-13T09:48:11;33.60;45.80
41344;DHT22;27089;50.022;7.604;2023-07-13T09:50:38;33.60;45.90
41344;DHT22;27089;50.022;7.604;2023-07-13T09:53:11;34.10;45.10
41344;DHT22;27089;50.022;7.604;2023-07-13T09:55:40;34.10;44.30
41344;DHT22;27089;50.022;7.604;2023-07-13T09:58:11;34.00;45.10
41344;DHT22;27089;50.022;7.604;2023-07-13T10:00:40;34.00;44.80
41344;DHT22;27089;50.022;7.604;2023-07-13T10:03:20;33.50;44.10
41344;DHT22;27089;50.022;7.604;2023-07-13T10:05:49;32.70;44.90
41344;DHT22;27089;50.022;7.604;2023-07-13T10:08:23;32.40;45.70
41344;DHT22;27089;50.022;7.604;2023-07-13T10:10:58;32.40;46.00
41344;DHT22;27089;50.022;7.604;2023-07-13T10:13:32;32.80;46.00
41344;DHT22;27089;50.022;7.604;2023-07-13T10:16:01;33.20;45.50
41344;DHT22;27089;50.022;7.604;2023-07-13T10:18:38;33.20;44.60
41344;DHT22;27089;50.022;7.604;2023-07-13T10:21:15;33.30;45.70
41344;DHT22;27089;50.022;7.604;2023-07-13T10:23:46;33.30;43.90
41344;DHT22;27089;50.022;7.604;2023-07-13T10:26:17;32.70;43.60
41344;DHT22;27089;50.022;7.604;2023-07-13T10:28:51;32.10;45.20
41344;DHT22;27089;50.022;7.604;2023-07-13T10:31:20;31.70;45.50
41344;DHT22;27089;50.022;7.604;2023-07-13T10:33:48;31.10;46.50
41344;DHT22;27089;50.022;7.604;2023-07-13T10:36:23;30.60;47.90
41344;DHT22;27089;50.022;7.604;2023-07-13T10:38:54;30.20;49.00
41344;DHT22;27089;50.022;7.604;2023-07-13T10:41:24;29.90;48.80
41344;DHT22;27089;50.022;7.604;2023-07-13T10:43:54;29.50;49.50
41344;DHT22;27089;50.022;7.604;2023-07-13T10:46:25;29.30;49.80
41344;DHT22;27089;50.022;7.604;2023-07-13T10:48:56;29.00;49.10
41344;DHT22;27089;50.022;7.604;2023-07-13T10:51:25;28.90;49.80
41344;DHT22;27089;50.022;7.604;2023-07-13T10:54:19;28.60;50.20
41344;DHT22;27089;50.022;7.604;2023-07-13T10:56:50;28.30;51.00
41344;DHT22;27089;50.022;7.604;2023-07-13T10:59:18;27.90;51.60
41344;DHT22;27089;50.022;7.604;2023-07-13T11:01:57;27.50;52.30
41344;DHT22;27089;50.022;7.604;2023-07-13T11:04:25;27.60;52.20
41344;DHT22;27089;50.022;7.604;2023-07-13T11:06:58;27.70;51.90
41344;DHT22;27089;50.022;7.604;2023-07-13T11:09:35;28.00;51.70
41344;DHT22;27089;50.022;7.604;2023-07-13T11:12:07;28.40;51.80
41344;DHT22;27089;50.022;7.604;2023-07-13T11:14:43;28.60;51.30
41344;DHT22;27089;50.022;7.604;2023-07-13T11:17:35;28.60;51.00
41344;DHT22;27089;50.022;7.604;2023-07-13T11:20:30;28.70;51.20
41344;DHT22;27089;50.022;7.604;2023-07-13T11:23:19;29.00;50.30
41344;DHT22;27089;50.022;7.604;2023-07-13T11:25:47;28.30;51.50
41344;DHT22;27089;50.022;7.604;2023-07-13T11:28:20;27.40;52.50
41344;DHT22;27089;50.022;7.604;2023-07-13T11:30:49;26.30;54.10
41344;DHT22;27089;50.022;7.604;2023-07-13T11:33:43;25.90;55.40
41344;DHT22;27089;50.022;7.604;2023-07-13T11:36:15;25.90;56.30
41344;DHT22;27089;50.022;7.604;2023-07-13T11:38:44;26.00;56.20
41344;DHT22;27089;50.022;7.604;2023-07-13T11:41:16;25.80;55.00
41344;DHT22;27089;50.022;7.604;2023-07-13T11:43:44;25.90;55.80
41344;DHT22;27089;50.022;7.604;2023-07-13T11:46:15;26.10;54.80
41344;DHT22;27089;50.022;7.604;2023-07-13T11:48:45;26.10;54.00
41344;DHT22;27089;50.022;7.604;2023-07-13T11:51:19;26.40;55.60
41344;DHT22;27089;50.022;7.604;2023-07-13T11:53:49;26.90;55.70
41344;DHT22;27089;50.022;7.604;2023-07-13T11:56:17;26.60;54.50
41344;DHT22;27089;50.022;7.604;2023-07-13T11:58:47;26.20;55.90
41344;DHT22;27089;50.022;7.604;2023-07-13T12:01:19;26.30;56.00
41344;DHT22;27089;50.022;7.604;2023-07-13T12:03:49;26.30;56.00
41344;DHT22;27089;50.022;7.604;2023-07-13T12:06:26;26.50;55.80
41344;DHT22;27089;50.022;7.604;2023-07-13T12:08:56;26.20;55.50
41344;DHT22;27089;50.022;7.604;2023-07-13T12:11:24;26.10;55.60
41344;DHT22;27089;50.022;7.604;2023-07-13T12:13:51;26.30;56.10
41344;DHT22;27089;50.022;7.604;2023-07-13T12:16:25;26.40;55.80
41344;DHT22;27089;50.022;7.604;2023-07-13T12:18:54;26.60;54.30
41344;DHT22;27089;50.022;7.604;2023-07-13T12:21:27;26.70;54.10
41344;DHT22;27089;50.022;7.604;2023-07-13T12:23:56;26.70;53.60
41344;DHT22;27089;50.022;7.604;2023-07-13T12:26:23;26.80;53.50
41344;DHT22;27089;50.022;7.604;2023-07-13T12:28:53;26.80;53.30
41344;DHT22;27089;50.022;7.604;2023-07-13T12:31:33;26.40;53.10
41344;DHT22;27089;50.022;7.604;2023-07-13T12:34:06;26.20;54.00
41344;DHT22;27089;50.022;7.604;2023-07-13T12:36:36;26.10;53.60
41344;DHT22;27089;50.022;7.604;2023-07-13T12:39:14;26.00;53.90
41344;DHT22;27089;50.022;7.604;2023-07-13T12:41:41;25.90;54.50
41344;DHT22;27089;50.022;7.604;2023-07-13T12:44:11;25.90;54.10
41344;DHT22;27089;50.022;7.604;2023-07-13T12:46:39;25.80;54.40
41344;DHT22;27089;50.022;7.604;2023-07-13T12:49:07;25.80;54.90
41344;DHT22;27089;50.022;7.604;2023-07-13T12:51:37;25.60;55.50
41344;DHT22;27089;50.022;7.604;2023-07-13T12:54:16;25.50;56.50
41344;DHT22;27089;50.022;7.604;2023-07-13T12:56:44;25.20;57.00
41344;DHT22;27089;50.022;7.604;2023-07-13T12:59:19;25.20;57.30
41344;DHT22;27089;50.022;7.604;2023-07-13T13:01:47;25.10;57.90
41344;DHT22;27089;50.022;7.604;2023-07-13T13:04:16;25.10;57.60
41344;DHT22;27089;50.022;7.604;2023-07-13T13:06:47;25.00;57.60
41344;DHT22;27089;50.022;7.604;2023-07-13T13:09:17;24.70;58.00
41344;DHT22;27089;50.022;7.604;2023-07-13T13:11:44;24.60;58.80
41344;DHT22;27089;50.022;7.604;2023-07-13T13:14:11;24.30;58.40
41344;DHT22;27089;50.022;7.604;2023-07-13T13:16:44;23.90;59.30
41344;DHT22;27089;50.022;7.604;2023-07-13T13:19:14;23.50;60.40
41344;DHT22;27089;50.022;7.604;2023-07-13T13:21:44;23.50;62.00
41344;DHT22;27089;50.022;7.604;2023-07-13T13:24:13;23.80;61.20
41344;DHT22;27089;50.022;7.604;2023-07-13T13:26:40;23.70;60.50
41344;DHT22;27089;50.022;7.604;2023-07-13T13:29:13;23.80;60.20
41344;DHT22;27089;50.022;7.604;2023-07-13T13:31:41;23.90;60.10
41344;DHT22;27089;50.022;7.604;2023-07-13T13:34:10;23.80;60.80
41344;DHT22;27089;50.022;7.604;2023-07-13T13:36:37;24.00;60.70
41344;DHT22;27089;50.022;7.604;2023-07-13T13:39:19;24.30;59.70
41344;DHT22;27089;50.022;7.604;2023-07-13T13:41:48;24.60;59.10
41344;DHT22;27089;50.022;7.604;2023-07-13T13:44:16;24.80;58.20
41344;DHT22;27089;50.022;7.604;2023-07-13T13:46:44;25.00;58.30
41344;DHT22;27089;50.022;7.604;2023-07-13T13:49:14;25.00;57.80
41344;DHT22;27089;50.022;7.604;2023-07-13T13:51:42;25.00;57.60
41344;DHT22;27089;50.022;7.604;2023-07-13T13:54:13;25.00;57.70
41344;DHT22;27089;50.022;7.604;2023-07-13T13:56:42;25.10;58.30
41344;DHT22;27089;50.022;7.604;2023-07-13T13:59:09;25.20;58.00
41344;DHT22;27089;50.022;7.604;2023-07-13T14:01:36;25.20;57.80
41344;DHT22;27089;50.022;7.604;2023-07-13T14:04:05;25.40;58.00
41344;DHT22;27089;50.022;7.604;2023-07-13T14:06:32;25.50;57.40
41344;DHT22;27089;50.022;7.604;2023-07-13T14:09:00;25.30;57.40
41344;DHT22;27089;50.022;7.604;2023-07-13T14:11:31;24.90;57.70
41344;DHT22;27089;50.022;7.604;2023-07-13T14:13:59;24.70;58.30
41344;DHT22;27089;50.022;7.604;2023-07-13T14:16:30;24.80;58.80
41344;DHT22;27089;50.022;7.604;2023-07-13T14:18:58;25.00;58.30
41344;DHT22;27089;50.022;7.604;2023-07-13T14:21:27;25.10;57.60
41344;DHT22;27089;50.022;7.604;2023-07-13T14:23:54;25.30;57.80
41344;DHT22;27089;50.022;7.604;2023-07-13T14:26:23;25.40;57.30
41344;DHT22;27089;50.022;7.604;2023-07-13T14:28:54;25.40;57.40
41344;DHT22;27089;50.022;7.604;2023-07-13T14:31:21;25.20;57.60
41344;DHT22;27089;50.022;7.604;2023-07-13T14:33:48;25.10;57.80
41344;DHT22;27089;50.022;7.604;2023-07-13T14:36:27;24.80;57.70
41344;DHT22;27089;50.022;7.604;2023-07-13T14:38:55;24.60;59.10
41344;DHT22;27089;50.022;7.604;2023-07-13T14:41:22;24.80;59.20
41344;DHT22;27089;50.022;7.604;2023-07-13T14:43:49;25.10;58.80
41344;DHT22;27089;50.022;7.604;2023-07-13T14:46:27;25.20;58.00
41344;DHT22;27089;50.022;7.604;2023-07-13T14:49:00;25.40;58.00
41344;DHT22;27089;50.022;7.604;2023-07-13T14:51:27;25.50;57.20
41344;DHT22;27089;50.022;7.604;2023-07-13T14:53:54;25.60;57.40
41344;DHT22;27089;50.022;7.604;2023-07-13T14:56:21;25.60;57.60
41344;DHT22;27089;50.022;7.604;2023-07-13T14:58:48;25.40;57.30
41344;DHT22;27089;50.022;7.604;2023-07-13T15:01:15;25.30;57.10
41344;DHT22;27089;50.022;7.604;2023-07-13T15:03:46;25.40;57.90
41344;DHT22;27089;50.022;7.604;2023-07-13T15:06:14;25.40;58.00
41344;DHT22;27089;50.022;7.604;2023-07-13T15:08:41;25.30;57.40
41344;DHT22;27089;50.022;7.604;2023-07-13T15:11:09;25.10;57.60
41344;DHT22;27089;50.022;7.604;2023-07-13T15:13:38;25.10;58.40
41344;DHT22;27089;50.022;7.604;2023-07-13T15:16:13;25.40;57.80
41344;DHT22;27089;50.022;7.604;2023-07-13T15:18:44;25.50;57.60
41344;DHT22;27089;50.022;7.604;2023-07-13T15:21:14;25.40;57.30
41344;DHT22;27089;50.022;7.604;2023-07-13T15:23:42;25.40;57.30
41344;DHT22;27089;50.022;7.604;2023-07-13T15:26:12;25.50;57.40
41344;DHT22;27089;50.022;7.604;2023-07-13T15:28:40;25.70;57.30
41344;DHT22;27089;50.022;7.604;2023-07-13T15:31:20;25.60;57.30
41344;DHT22;27089;50.022;7.604;2023-07-13T15:33:49;25.40;57.20
41344;DHT22;27089;50.022;7.604;2023-07-13T15:36:18;25.20;58.20
41344;DHT22;27089;50.022;7.604;2023-07-13T15:38:46;25.10;58.40
41344;DHT22;27089;50.022;7.604;2023-07-13T15:41:18;25.10;58.40
41344;DHT22;27089;50.022;7.604;2023-07-13T15:43:48;25.10;58.50